createdAt,value
2023-05-25T00:01:35.314Z,6.95
2023-05-25T00:04:05.197Z,9.35
2023-05-25T00:06:32.862Z,7.70
2023-05-25T00:08:59.290Z,9.77
2023-05-25T00:11:26.563Z,9.43
2023-05-25T00:13:53.451Z,10.93
2023-05-25T00:16:20.540Z,7.60
2023-05-25T00:18:48.648Z,7.05
2023-05-25T00:21:16.245Z,8.40
2023-05-25T00:23:43.208Z,10.48
2023-05-25T00:26:09.654Z,9.13
2023-05-25T00:28:36.099Z,9.25
2023-05-25T00:31:02.539Z,7.68
2023-05-25T00:33:29.025Z,9.77
2023-05-25T00:35:57.057Z,10.98
2023-05-25T00:38:23.470Z,10.23
2023-05-25T00:40:55.227Z,6.75
2023-05-25T00:43:21.620Z,7.53
2023-05-25T00:45:48.027Z,13.48
2023-05-25T00:48:15.888Z,8.80
2023-05-25T00:50:44.262Z,7.53
2023-05-25T00:53:12.744Z,10.93
2023-05-25T00:55:54.760Z,9.98
2023-05-25T00:58:24.404Z,8.07
2023-05-25T01:00:53.365Z,9.30
2023-05-25T01:03:21.846Z,14.77
2023-05-25T01:05:51.254Z,12.23
2023-05-25T01:08:21.226Z,6.72
2023-05-25T01:10:51.677Z,7.93
2023-05-25T01:13:20.107Z,8.43
2023-05-25T01:15:47.931Z,9.70
2023-05-25T01:18:15.919Z,8.52
2023-05-25T01:21:12.990Z,10.25
2023-05-25T01:23:47.181Z,12.52
2023-05-25T01:26:18.248Z,10.93
2023-05-25T01:28:51.390Z,12.00
2023-05-25T01:31:21.926Z,8.50
2023-05-25T01:33:51.360Z,9.85
2023-05-25T01:36:18.972Z,8.85
2023-05-25T01:38:45.630Z,10.48
2023-05-25T01:41:30.737Z,11.00
2023-05-25T01:43:57.251Z,7.20
2023-05-25T01:46:32.980Z,13.00
2023-05-25T01:49:21.471Z,11.57
2023-05-25T01:51:55.658Z,6.82
2023-05-25T01:54:28.797Z,7.03
2023-05-25T01:57:01.236Z,8.00
2023-05-25T01:59:29.363Z,10.75
2023-05-25T02:01:56.892Z,9.30
2023-05-25T02:04:23.484Z,10.82
2023-05-25T02:06:51.959Z,10.70
2023-05-25T02:09:18.397Z,12.52
2023-05-25T02:11:44.811Z,11.63
2023-05-25T02:14:11.378Z,12.98
2023-05-25T02:16:37.841Z,12.50
2023-05-25T02:19:04.364Z,7.82
2023-05-25T02:21:31.260Z,9.60
2023-05-25T02:23:58.088Z,7.63
2023-05-25T02:26:24.539Z,11.35
2023-05-25T02:28:51.502Z,13.43
2023-05-25T02:31:18.432Z,14.50
2023-05-25T02:33:44.846Z,9.90
2023-05-25T02:36:11.218Z,11.80
2023-05-25T02:38:37.572Z,12.07
2023-05-25T02:41:03.969Z,10.75
2023-05-25T02:43:30.481Z,12.77
2023-05-25T02:45:56.887Z,14.48
2023-05-25T02:48:24.447Z,17.15
2023-05-25T02:50:50.854Z,14.32
2023-05-25T02:53:17.242Z,12.68
2023-05-25T02:55:43.941Z,17.90
2023-05-25T02:58:10.535Z,15.23
2023-05-25T03:00:37.789Z,12.93
2023-05-25T03:03:04.368Z,13.73
2023-05-25T03:05:34.501Z,13.65
2023-05-25T03:08:01.431Z,15.88
2023-05-25T03:10:28.106Z,14.90
2023-05-25T03:12:54.476Z,12.57
2023-05-25T03:15:20.952Z,10.90
2023-05-25T03:17:47.460Z,14.10
2023-05-25T03:20:15.535Z,10.90
2023-05-25T03:22:43.312Z,13.60
2023-05-25T03:25:13.056Z,8.38
2023-05-25T03:27:39.863Z,12.63
2023-05-25T03:30:06.939Z,13.98
2023-05-25T03:32:33.945Z,8.93
2023-05-25T03:35:00.378Z,10.70
2023-05-25T03:37:26.923Z,15.98
2023-05-25T03:39:53.318Z,12.43
2023-05-25T03:42:19.686Z,10.52
2023-05-25T03:44:46.184Z,10.95
2023-05-25T03:47:13.300Z,13.38
2023-05-25T03:49:39.726Z,11.95
2023-05-25T03:52:06.348Z,9.85
2023-05-25T03:54:32.782Z,13.52
2023-05-25T03:56:59.448Z,12.00
2023-05-25T03:59:26.069Z,11.63
2023-05-25T04:01:52.476Z,11.43
2023-05-25T04:04:18.929Z,11.07
2023-05-25T04:06:49.067Z,18.27
2023-05-25T04:09:15.791Z,9.65
2023-05-25T04:11:42.196Z,16.52
2023-05-25T04:14:08.627Z,14.32
2023-05-25T04:16:35.462Z,10.85
2023-05-25T04:19:02.026Z,13.48
2023-05-25T04:21:28.513Z,12.48
2023-05-25T04:23:54.908Z,7.70
2023-05-25T04:26:21.303Z,13.00
2023-05-25T04:28:48.250Z,14.07
2023-05-25T04:31:14.782Z,11.15
2023-05-25T04:33:41.197Z,11.13
2023-05-25T04:36:11.108Z,12.07
2023-05-25T04:38:38.026Z,15.75
2023-05-25T04:41:05.756Z,11.60
2023-05-25T04:43:32.451Z,13.35
2023-05-25T04:46:00.028Z,11.85
2023-05-25T04:48:28.472Z,13.40
2023-05-25T04:50:55.925Z,11.48
2023-05-25T04:53:23.049Z,12.65
2023-05-25T04:55:49.626Z,10.57
2023-05-25T04:58:16.020Z,14.00
2023-05-25T05:00:42.611Z,13.30
2023-05-25T05:03:09.146Z,13.88
2023-05-25T05:05:36.750Z,10.43
2023-05-25T05:08:03.570Z,15.50
2023-05-25T05:10:29.958Z,11.68
2023-05-25T05:12:56.516Z,10.80
2023-05-25T05:15:22.921Z,11.93
2023-05-25T05:17:49.362Z,11.18
2023-05-25T05:20:16.059Z,13.90
2023-05-25T05:22:43.620Z,11.48
2023-05-25T05:25:10.161Z,12.55
2023-05-25T05:27:36.560Z,11.57
2023-05-25T05:30:03.834Z,13.43
2023-05-25T05:32:30.665Z,10.40
2023-05-25T05:34:57.125Z,14.85
2023-05-25T05:37:23.489Z,10.68
2023-05-25T05:39:52.512Z,11.05
2023-05-25T05:42:19.043Z,15.90
2023-05-25T05:44:45.432Z,13.70
2023-05-25T05:47:12.267Z,12.27
2023-05-25T05:49:39.366Z,15.20
2023-05-25T05:52:06.681Z,13.20
2023-05-25T05:54:33.105Z,13.48
2023-05-25T05:56:59.457Z,13.65
2023-05-25T05:59:26.516Z,12.90
2023-05-25T06:01:53.033Z,12.38
2023-05-25T06:04:26.054Z,13.68
2023-05-25T06:06:52.462Z,15.05
2023-05-25T06:09:18.847Z,13.00
2023-05-25T06:11:45.429Z,14.95
2023-05-25T06:14:11.826Z,13.85
2023-05-25T06:16:38.236Z,14.30
2023-05-25T06:19:04.737Z,10.88
2023-05-25T06:21:31.153Z,11.48
2023-05-25T06:24:00.695Z,14.82
2023-05-25T06:26:27.289Z,17.67
2023-05-25T06:28:54.193Z,15.23
2023-05-25T06:31:20.912Z,13.25
2023-05-25T06:33:47.368Z,14.73
2023-05-25T06:36:15.754Z,13.20
2023-05-25T06:38:42.394Z,14.32
2023-05-25T06:41:09.672Z,14.77
2023-05-25T06:43:36.086Z,13.93
2023-05-25T06:46:02.540Z,15.32
2023-05-25T06:48:28.961Z,14.77
2023-05-25T06:50:55.356Z,13.80
2023-05-25T06:53:21.726Z,16.67
2023-05-25T06:55:49.227Z,15.57
2023-05-25T06:58:15.669Z,14.15
2023-05-25T07:00:42.597Z,16.95
2023-05-25T07:03:10.159Z,14.98
2023-05-25T07:05:36.555Z,18.23
2023-05-25T07:08:02.932Z,15.93
2023-05-25T07:10:29.290Z,15.95
2023-05-25T07:12:55.708Z,19.05
2023-05-25T07:15:22.715Z,14.90
2023-05-25T07:17:49.942Z,15.05
2023-05-25T07:20:16.532Z,15.85
2023-05-25T07:22:43.534Z,15.95
2023-05-25T07:25:10.079Z,13.57
2023-05-25T07:27:36.617Z,15.05
2023-05-25T07:30:03.356Z,14.38
2023-05-25T07:32:29.750Z,12.90
2023-05-25T07:34:56.120Z,10.27
2023-05-25T07:37:22.634Z,14.77
2023-05-25T07:39:49.079Z,12.75
2023-05-25T07:42:20.674Z,8.30
2023-05-25T07:44:50.118Z,10.95
2023-05-25T07:47:16.593Z,9.07
2023-05-25T07:49:42.962Z,10.20
2023-05-25T07:52:09.431Z,11.95
2023-05-25T07:54:39.984Z,9.10
2023-05-25T07:57:07.141Z,11.27
2023-05-25T07:59:33.543Z,12.32
2023-05-25T08:01:59.929Z,11.57
2023-05-25T08:04:26.454Z,11.45
2023-05-25T08:06:53.161Z,11.18
2023-05-25T08:09:19.553Z,10.38
2023-05-25T08:11:47.428Z,9.98
2023-05-25T08:14:14.095Z,11.32
2023-05-25T08:16:40.795Z,14.13
2023-05-25T08:19:07.163Z,13.85
2023-05-25T08:21:34.981Z,15.93
2023-05-25T08:24:04.164Z,12.93
2023-05-25T08:26:41.694Z,11.93
2023-05-25T08:29:12.350Z,10.77
2023-05-25T08:31:39.068Z,11.98
2023-05-25T08:34:05.504Z,11.07
2023-05-25T08:36:35.840Z,13.30
2023-05-25T08:39:04.411Z,12.43
2023-05-25T08:41:32.189Z,13.38
2023-05-25T08:43:58.665Z,12.95
2023-05-25T08:46:31.243Z,12.38
2023-05-25T08:49:12.004Z,12.75
2023-05-25T08:51:42.523Z,12.52
2023-05-25T08:54:20.717Z,11.07
2023-05-25T08:56:53.009Z,13.23
2023-05-25T08:59:36.279Z,12.25
2023-05-25T09:02:18.641Z,11.15
2023-05-25T09:04:45.298Z,12.32
2023-05-25T09:07:12.178Z,13.55
2023-05-25T09:09:39.914Z,14.20
2023-05-25T09:12:07.350Z,13.95
2023-05-25T09:14:34.986Z,11.15
2023-05-25T09:17:01.657Z,13.18
2023-05-25T09:19:28.053Z,12.57
2023-05-25T09:22:03.052Z,12.57
2023-05-25T09:24:35.134Z,13.35
2023-05-25T09:27:03.554Z,18.48
2023-05-25T09:29:29.946Z,16.77
2023-05-25T09:31:56.746Z,12.32
2023-05-25T09:34:23.192Z,13.23
2023-05-25T09:36:49.795Z,9.48
2023-05-25T09:39:17.096Z,13.05
2023-05-25T09:41:43.668Z,12.60
2023-05-25T09:44:12.014Z,11.40
2023-05-25T09:46:39.228Z,8.32
2023-05-25T09:49:11.358Z,10.55
2023-05-25T09:51:38.347Z,11.35
2023-05-25T09:54:08.373Z,12.25
2023-05-25T09:56:34.761Z,11.77
2023-05-25T09:59:01.500Z,12.95
2023-05-25T10:01:28.713Z,10.40
2023-05-25T10:06:49.673Z,11.50
2023-05-25T10:09:19.154Z,10.15
2023-05-25T10:11:46.423Z,6.20
2023-05-25T10:14:16.225Z,9.75
2023-05-25T10:16:48.250Z,9.07
2023-05-25T10:19:21.929Z,8.63
2023-05-25T10:22:01.235Z,8.48
2023-05-25T10:24:42.918Z,7.88
2023-05-25T10:27:25.614Z,10.20
2023-05-25T10:29:56.563Z,8.65
2023-05-25T10:32:23.591Z,7.90
2023-05-25T10:34:52.721Z,6.65
2023-05-25T10:37:19.315Z,8.45
2023-05-25T10:39:46.167Z,9.57
2023-05-25T10:42:13.242Z,7.65
2023-05-25T10:44:43.293Z,6.00
2023-05-25T10:47:10.699Z,5.60
2023-05-25T10:49:55.987Z,7.97
2023-05-25T10:52:27.614Z,6.30
2023-05-25T10:54:58.099Z,6.60
2023-05-25T10:57:26.036Z,6.60
2023-05-25T11:00:00.987Z,5.55
2023-05-25T11:02:32.156Z,7.72
2023-05-25T11:05:30.500Z,9.25
2023-05-25T11:08:07.018Z,8.27
2023-05-25T11:10:44.310Z,7.90
2023-05-25T11:13:34.522Z,6.85
2023-05-25T11:16:14.934Z,5.88
2023-05-25T11:18:43.378Z,8.68
2023-05-25T11:21:22.072Z,8.30
2023-05-25T11:23:54.550Z,6.50
2023-05-25T11:26:22.755Z,8.40
2023-05-25T11:28:51.193Z,6.88
2023-05-25T11:31:29.071Z,9.82
2023-05-25T11:33:57.469Z,7.82
2023-05-25T11:36:25.581Z,10.75
2023-05-25T11:39:02.402Z,7.72
2023-05-25T11:41:30.071Z,9.10
2023-05-25T11:43:56.952Z,6.18
2023-05-25T11:46:23.360Z,8.38
2023-05-25T11:48:54.398Z,7.82
2023-05-25T11:51:23.044Z,9.85
2023-05-25T11:53:50.031Z,15.38
2023-05-25T11:56:33.692Z,8.35
2023-05-25T11:59:01.844Z,7.95
2023-05-25T12:01:32.337Z,8.55
2023-05-25T12:04:08.622Z,11.18
2023-05-25T12:06:36.746Z,10.57
2023-05-25T12:09:06.946Z,8.25
2023-05-25T12:11:38.172Z,8.50
2023-05-25T12:14:06.545Z,10.98
2023-05-25T12:16:39.023Z,7.72
2023-05-25T12:19:10.817Z,9.45
2023-05-25T12:21:39.178Z,7.53
2023-05-25T12:24:06.357Z,11.32
2023-05-25T12:26:32.998Z,12.02
2023-05-25T12:29:01.323Z,9.93
2023-05-25T12:31:34.111Z,11.35
2023-05-25T12:34:17.857Z,10.63
2023-05-25T12:36:50.711Z,8.38
2023-05-25T12:39:39.193Z,9.95
2023-05-25T12:42:12.100Z,11.00
2023-05-25T12:44:38.676Z,11.43
2023-05-25T12:47:23.391Z,7.78
2023-05-25T12:49:51.997Z,11.60
2023-05-25T12:52:37.311Z,10.02
2023-05-25T12:55:26.979Z,11.68
2023-05-25T12:58:02.307Z,14.05
2023-05-25T13:00:35.979Z,13.13
2023-05-25T13:03:03.455Z,14.20
2023-05-25T13:05:36.555Z,12.52
2023-05-25T13:08:05.247Z,9.65
2023-05-25T13:10:33.319Z,10.43
2023-05-25T13:12:59.960Z,11.52
2023-05-25T13:15:27.233Z,13.07
2023-05-25T13:17:54.783Z,10.52
2023-05-25T13:20:23.616Z,14.85
2023-05-25T13:22:51.682Z,9.90
2023-05-25T13:25:18.192Z,11.73
2023-05-25T13:27:50.152Z,12.40
2023-05-25T13:30:17.281Z,11.85
2023-05-25T13:32:44.449Z,13.80
2023-05-25T13:35:36.949Z,10.73
2023-05-25T13:38:03.543Z,10.45
2023-05-25T13:40:30.005Z,13.02
2023-05-25T13:42:56.477Z,12.27
2023-05-25T13:45:22.843Z,11.50
2023-05-25T13:47:49.811Z,12.20
2023-05-25T13:50:16.338Z,14.48
2023-05-25T13:52:42.716Z,17.13
2023-05-25T13:55:09.159Z,18.05
2023-05-25T13:57:35.592Z,13.65
2023-05-25T14:00:01.967Z,15.57
2023-05-25T14:02:29.234Z,11.45
2023-05-25T14:04:57.147Z,12.18
2023-05-25T14:07:23.830Z,14.70
2023-05-25T14:09:51.284Z,14.38
2023-05-25T14:12:17.689Z,15.55
2023-05-25T14:14:44.063Z,13.63
2023-05-25T14:17:17.061Z,13.20
2023-05-25T14:19:43.432Z,15.48
2023-05-25T14:22:13.913Z,15.18
2023-05-25T14:24:40.902Z,15.77
2023-05-25T14:27:07.435Z,12.90
2023-05-25T14:29:34.157Z,13.52
2023-05-25T14:32:00.988Z,14.48
2023-05-25T14:34:27.915Z,14.43
2023-05-25T14:36:54.420Z,13.32
2023-05-25T14:39:20.827Z,13.18
2023-05-25T14:41:47.209Z,12.82
2023-05-25T14:44:13.604Z,14.20
2023-05-25T14:46:40.021Z,12.60
2023-05-25T14:49:06.385Z,15.05
2023-05-25T14:51:32.748Z,15.50
2023-05-25T14:54:01.208Z,12.70
2023-05-25T14:56:28.367Z,11.43
2023-05-25T14:58:54.749Z,17.30
2023-05-25T15:01:23.690Z,13.32
2023-05-25T15:03:51.785Z,13.68
2023-05-25T15:06:18.290Z,12.77
2023-05-25T15:08:44.641Z,13.00
2023-05-25T15:11:11.086Z,13.15
2023-05-25T15:13:37.453Z,14.57
2023-05-25T15:16:04.183Z,16.10
2023-05-25T15:18:30.605Z,14.45
2023-05-25T15:20:58.008Z,15.63
2023-05-25T15:23:24.460Z,17.92
2023-05-25T15:25:50.858Z,17.90
2023-05-25T15:28:17.294Z,14.02
2023-05-25T15:30:43.716Z,14.18
2023-05-25T15:33:10.177Z,15.70
2023-05-25T15:35:36.626Z,15.73
2023-05-25T15:38:03.022Z,14.55
2023-05-25T15:40:29.481Z,13.18
2023-05-25T15:42:56.286Z,13.98
2023-05-25T15:45:22.658Z,15.15
2023-05-25T15:47:50.384Z,14.45
2023-05-25T15:50:17.104Z,17.80
2023-05-25T15:52:43.484Z,17.00
2023-05-25T15:55:09.966Z,14.75
2023-05-25T15:57:36.366Z,15.27
2023-05-25T16:00:02.863Z,14.18
2023-05-25T16:02:29.259Z,13.20
2023-05-25T16:04:55.701Z,13.40
2023-05-25T16:07:22.168Z,14.35
2023-05-25T16:09:48.576Z,15.88
2023-05-25T16:12:15.285Z,15.13
2023-05-25T16:14:41.736Z,14.98
2023-05-25T16:17:08.219Z,17.13
2023-05-25T16:19:34.609Z,13.27
2023-05-25T16:22:01.030Z,14.90
2023-05-25T16:24:27.521Z,11.65
2023-05-25T16:26:54.025Z,14.77
2023-05-25T16:29:20.503Z,18.58
2023-05-25T16:31:46.930Z,16.95
2023-05-25T16:34:13.368Z,17.67
2023-05-25T16:36:39.876Z,13.82
2023-05-25T16:39:07.796Z,19.63
2023-05-25T16:41:34.270Z,14.77
2023-05-25T16:44:01.424Z,15.68
2023-05-25T16:46:27.806Z,16.77
2023-05-25T16:48:54.229Z,13.55
2023-05-25T16:51:20.591Z,16.30
2023-05-25T16:53:47.042Z,13.18
2023-05-25T16:56:13.453Z,15.88
2023-05-25T16:58:39.833Z,14.77
2023-05-25T17:01:06.295Z,14.40
2023-05-25T17:03:32.834Z,13.15
2023-05-25T17:05:59.314Z,13.07
2023-05-25T17:08:25.785Z,14.57
2023-05-25T17:10:52.366Z,10.18
2023-05-25T17:13:18.765Z,18.98
2023-05-25T17:15:45.400Z,13.50
2023-05-25T17:18:11.998Z,15.73
2023-05-25T17:20:38.613Z,14.20
2023-05-25T17:23:05.021Z,15.27
2023-05-25T17:25:33.365Z,16.52
2023-05-25T17:28:00.597Z,13.95
2023-05-25T17:30:27.097Z,14.95
2023-05-25T17:32:53.841Z,13.68
2023-05-25T17:35:20.320Z,18.13
2023-05-25T17:37:47.143Z,12.73
2023-05-25T17:40:14.193Z,16.17
2023-05-25T17:42:40.560Z,15.68
2023-05-25T17:45:11.390Z,16.98
2023-05-25T17:47:38.198Z,12.52
2023-05-25T17:50:05.467Z,16.08
2023-05-25T17:52:32.028Z,15.57
2023-05-25T17:54:58.404Z,11.52
2023-05-25T17:57:25.687Z,16.70
2023-05-25T17:59:52.086Z,20.00
2023-05-25T18:02:18.624Z,12.82
2023-05-25T18:04:45.333Z,15.82
2023-05-25T18:07:11.719Z,17.27
2023-05-25T18:09:38.228Z,14.38
2023-05-25T18:12:04.886Z,12.93
2023-05-25T18:14:35.260Z,14.32
2023-05-25T18:17:01.761Z,15.80
2023-05-25T18:19:28.225Z,14.98
2023-05-25T18:21:54.600Z,12.73
2023-05-25T18:24:20.999Z,16.05
2023-05-25T18:26:47.434Z,18.25
2023-05-25T18:29:13.805Z,18.25
2023-05-25T18:31:45.557Z,21.20
2023-05-25T18:34:12.383Z,17.02
2023-05-25T18:36:38.799Z,16.40
2023-05-25T18:39:05.280Z,18.38
2023-05-25T18:41:31.755Z,17.52
2023-05-25T18:43:58.178Z,20.25
2023-05-25T18:46:25.752Z,20.55
2023-05-25T18:48:52.649Z,16.83
2023-05-25T18:51:23.020Z,17.95
2023-05-25T18:53:49.418Z,24.23
2023-05-25T18:56:15.955Z,16.67
2023-05-25T18:58:42.486Z,21.00
2023-05-25T19:01:08.918Z,21.02
2023-05-25T19:03:35.488Z,22.48
2023-05-25T19:06:02.106Z,18.83
2023-05-25T19:08:28.529Z,25.65
2023-05-25T19:10:54.931Z,24.60
2023-05-25T19:13:22.851Z,22.73
2023-05-25T19:15:50.468Z,22.92
2023-05-25T19:18:17.282Z,19.65
2023-05-25T19:21:09.011Z,17.73
2023-05-25T19:23:39.374Z,24.83
2023-05-25T19:26:19.639Z,20.98
2023-05-25T19:28:56.253Z,18.88
2023-05-25T19:31:34.926Z,21.23
2023-05-25T19:34:24.687Z,16.50
2023-05-25T19:37:10.906Z,20.42
2023-05-25T19:39:43.457Z,16.27
2023-05-25T19:42:27.345Z,19.38
2023-05-25T19:45:03.272Z,23.60
2023-05-25T19:50:24.946Z,20.90
2023-05-25T19:53:08.126Z,17.98
2023-05-25T19:56:00.785Z,21.40
2023-05-25T19:58:34.407Z,17.58
2023-05-25T20:01:18.353Z,18.75
2023-05-25T20:03:54.720Z,20.02
2023-05-25T20:06:23.483Z,18.23
2023-05-25T20:09:01.211Z,20.08
2023-05-25T20:11:27.993Z,20.85
2023-05-25T20:13:56.343Z,19.58
2023-05-25T20:16:23.372Z,26.15
2023-05-25T20:18:49.860Z,17.13
2023-05-25T20:21:18.584Z,20.50
2023-05-25T20:23:45.042Z,20.05
2023-05-25T20:26:12.008Z,24.13
2023-05-25T20:28:38.469Z,21.42
2023-05-25T20:31:06.469Z,20.80
2023-05-25T20:33:33.007Z,18.70
2023-05-25T20:35:59.413Z,21.58
2023-05-25T20:38:26.263Z,24.58
2023-05-25T20:40:52.705Z,21.48
2023-05-25T20:43:19.129Z,19.92
2023-05-25T20:45:45.830Z,19.20
2023-05-25T20:48:12.449Z,21.88
2023-05-25T20:50:38.930Z,23.77
2023-05-25T20:53:05.503Z,19.55
2023-05-25T20:55:31.935Z,17.02
2023-05-25T20:58:00.658Z,24.17
2023-05-25T21:00:27.052Z,23.58
2023-05-25T21:02:53.465Z,23.73
2023-05-25T21:05:19.891Z,21.23
2023-05-25T21:07:46.333Z,20.55
2023-05-25T21:10:12.705Z,20.38
2023-05-25T21:12:39.164Z,20.85
2023-05-25T21:15:06.361Z,19.65
2023-05-25T21:17:32.821Z,23.80
2023-05-25T21:19:59.253Z,20.27
2023-05-25T21:22:25.868Z,22.10
2023-05-25T21:24:52.249Z,23.50
2023-05-25T21:27:18.728Z,21.33
2023-05-25T21:29:45.265Z,18.17
2023-05-25T21:32:11.728Z,17.92
2023-05-25T21:34:38.151Z,17.08
2023-05-25T21:37:04.773Z,19.70
2023-05-25T21:39:31.211Z,19.38
2023-05-25T21:41:57.604Z,16.08
2023-05-25T21:44:24.054Z,14.27
2023-05-25T21:46:50.466Z,19.20
2023-05-25T21:49:17.006Z,17.77
2023-05-25T21:51:43.485Z,22.20
2023-05-25T21:54:09.852Z,20.40
2023-05-25T21:56:36.235Z,19.85
2023-05-25T21:59:02.701Z,18.58
2023-05-25T22:01:29.219Z,21.95
2023-05-25T22:03:55.724Z,22.20
2023-05-25T22:06:22.151Z,21.42
2023-05-25T22:08:48.606Z,18.90
2023-05-25T22:11:14.985Z,14.80
2023-05-25T22:13:41.407Z,18.13
2023-05-25T22:16:07.784Z,16.15
2023-05-25T22:18:35.031Z,20.63
2023-05-25T22:21:02.427Z,15.90
2023-05-25T22:23:28.861Z,23.20
2023-05-25T22:25:55.284Z,17.83
2023-05-25T22:28:21.644Z,18.27
2023-05-25T22:30:48.080Z,18.00
2023-05-25T22:33:14.583Z,21.38
2023-05-25T22:35:40.936Z,21.45
2023-05-25T22:38:07.349Z,18.05
2023-05-25T22:40:33.707Z,21.83
2023-05-25T22:43:00.224Z,23.35
2023-05-25T22:45:26.609Z,20.17
2023-05-25T22:47:52.986Z,19.63
2023-05-25T22:50:19.356Z,18.50
2023-05-25T22:52:46.055Z,22.23
2023-05-25T22:55:12.526Z,22.50
2023-05-25T22:57:39.315Z,19.67
2023-05-25T23:00:06.548Z,23.38
2023-05-25T23:02:33.137Z,17.45
2023-05-25T23:04:59.707Z,18.42
2023-05-25T23:07:26.140Z,23.23
2023-05-25T23:09:52.528Z,25.13
2023-05-25T23:12:18.900Z,22.65
2023-05-25T23:14:45.301Z,23.45
2023-05-25T23:17:11.747Z,23.38
2023-05-25T23:19:38.653Z,24.90
2023-05-25T23:22:05.048Z,16.38
2023-05-25T23:24:31.596Z,21.55
2023-05-25T23:26:57.962Z,24.15
2023-05-25T23:29:24.338Z,26.80
2023-05-25T23:31:50.778Z,23.83
2023-05-25T23:34:17.145Z,22.67
2023-05-25T23:36:43.504Z,23.85
2023-05-25T23:39:10.045Z,22.58
2023-05-25T23:41:36.412Z,33.42
2023-05-25T23:44:02.831Z,23.23
2023-05-25T23:46:31.587Z,27.42
2023-05-25T23:48:58.455Z,33.55
2023-05-25T23:51:24.828Z,16.90
2023-05-25T23:53:51.216Z,26.42
2023-05-25T23:56:17.614Z,27.13
2023-05-25T23:58:43.988Z,25.75
